Time;durP1;ratioP1;P1;durP2;ratioP2;P2;SDS_P1;SDS_P2;PMS_P1;PMS_P2;Temp;Humidity;BMP_temperature;BMP_pressure;BME280_temperature;BME280_humidity;BME280_pressure;Samples;Min_cycle;Max_cycle;Signal;HPM_P1;HPM_P2
2020/12/18 00:00:44;;;;;;;2.80;2.60;;;23.00;31.20;;;;;;5012297;28;20417;-56
2020/12/18 00:03:09;;;;;;;3.05;2.53;;;23.00;31.10;;;;;;5011976;28;21053;-56
2020/12/18 00:05:39;;;;;;;2.55;2.30;;;22.90;31.30;;;;;;5010888;28;20488;-56
2020/12/18 00:08:05;;;;;;;2.85;2.60;;;22.90;31.30;;;;;;5010353;28;20834;-56
2020/12/18 00:10:30;;;;;;;2.67;2.42;;;22.90;31.30;;;;;;5012161;28;20420;-56
2020/12/18 00:12:56;;;;;;;2.70;2.50;;;22.90;31.30;;;;;;5012097;28;20476;-56
2020/12/18 00:15:26;;;;;;;2.97;2.67;;;22.80;31.30;;;;;;5012050;28;20446;-56
2020/12/18 00:17:52;;;;;;;2.50;2.30;;;22.80;31.10;;;;;;5012050;28;20433;-56
2020/12/18 00:20:17;;;;;;;2.70;2.50;;;22.80;31.30;;;;;;5010933;28;20423;-56
2020/12/18 00:22:43;;;;;;;2.40;2.20;;;22.80;31.10;;;;;;5011761;28;20392;-58
2020/12/18 00:25:09;;;;;;;2.60;2.40;;;22.70;31.20;;;;;;5011985;28;20424;-56
2020/12/18 00:27:35;;;;;;;2.70;2.50;;;22.70;31.30;;;;;;5012157;28;20384;-56
2020/12/18 00:30:01;;;;;;;2.40;2.20;;;22.70;31.50;;;;;;4993965;28;20401;-56
2020/12/18 00:32:26;;;;;;;2.40;2.20;;;22.70;31.30;;;;;;5010293;28;20741;-56
2020/12/18 00:34:52;;;;;;;2.50;2.30;;;22.60;31.40;;;;;;5011365;28;20408;-57
2020/12/18 00:37:20;;;;;;;2.50;2.30;;;22.60;31.10;;;;;;5011859;28;20459;-56
2020/12/18 00:39:45;;;;;;;2.40;2.20;;;22.60;31.50;;;;;;5011466;28;20592;-56
2020/12/18 00:42:11;;;;;;;2.30;2.10;;;22.50;31.30;;;;;;5011229;28;20940;-56
2020/12/18 00:44:37;;;;;;;2.50;2.30;;;22.50;31.40;;;;;;5011726;28;20899;-56
2020/12/18 00:47:02;;;;;;;2.30;2.10;;;22.50;31.50;;;;;;5011682;28;20491;-56
2020/12/18 00:49:28;;;;;;;2.40;2.20;;;22.40;31.40;;;;;;5011511;28;20389;-56
2020/12/18 00:51:54;;;;;;;2.33;2.13;;;22.40;31.40;;;;;;5011424;28;20440;-56
2020/12/18 00:54:19;;;;;;;2.30;2.10;;;22.40;31.50;;;;;;5010827;28;20435;-56
2020/12/18 00:56:45;;;;;;;2.15;1.95;;;22.40;31.40;;;;;;5011495;28;20396;-56
2020/12/18 00:59:11;;;;;;;2.17;1.98;;;22.40;31.60;;;;;;5011325;28;20434;-56
2020/12/18 01:01:37;;;;;;;2.20;2.00;;;22.30;31.50;;;;;;5011258;28;20464;-56
2020/12/18 01:04:03;;;;;;;2.13;1.92;;;22.30;31.60;;;;;;5011201;28;20467;-56
2020/12/18 01:06:30;;;;;;;2.00;1.80;;;22.30;31.60;;;;;;5010516;28;21361;-56
2020/12/18 01:08:56;;;;;;;2.13;1.92;;;22.30;31.60;;;;;;5011307;28;20401;-56
2020/12/18 01:11:22;;;;;;;1.90;1.70;;;22.30;31.50;;;;;;5011264;28;20483;-56
2020/12/18 01:13:47;;;;;;;2.20;2.00;;;22.20;31.60;;;;;;5011152;28;20832;-56
2020/12/18 01:16:13;;;;;;;2.15;1.95;;;22.20;31.60;;;;;;5010900;28;20393;-56
2020/12/18 01:18:39;;;;;;;2.00;1.80;;;22.20;31.60;;;;;;5011350;28;20480;-56
2020/12/18 01:21:05;;;;;;;2.27;1.97;;;22.10;31.60;;;;;;5011180;28;20424;-56
2020/12/18 01:23:31;;;;;;;1.90;1.70;;;22.20;31.70;;;;;;5011342;28;20400;-56
2020/12/18 01:25:56;;;;;;;2.33;1.87;;;22.10;31.60;;;;;;5011032;28;20409;-56
2020/12/18 01:28:22;;;;;;;2.17;1.95;;;22.00;31.60;;;;;;5010837;28;20808;-56
2020/12/18 01:30:48;;;;;;;2.00;1.80;;;22.10;31.70;;;;;;5011208;28;20435;-56
2020/12/18 01:33:14;;;;;;;1.97;1.77;;;22.10;31.70;;;;;;5014462;28;20420;-56
2020/12/18 01:35:39;;;;;;;1.70;1.60;;;22.00;31.70;;;;;;4997106;28;20396;-56
2020/12/18 01:38:05;;;;;;;1.77;1.60;;;22.00;31.70;;;;;;5014576;28;20427;-56
2020/12/18 01:40:31;;;;;;;2.15;1.95;;;22.00;31.70;;;;;;5014453;28;20400;-56
2020/12/18 01:42:57;;;;;;;2.00;1.80;;;21.90;32.00;;;;;;5014749;28;20805;-56
2020/12/18 01:45:22;;;;;;;1.63;1.53;;;21.90;31.80;;;;;;5014746;28;20471;-56
2020/12/18 01:47:48;;;;;;;2.00;1.80;;;21.90;32.00;;;;;;5013251;28;20484;-56
2020/12/18 01:50:14;;;;;;;1.70;1.60;;;21.90;31.80;;;;;;5014230;28;20454;-56
2020/12/18 01:52:41;;;;;;;1.70;1.60;;;21.80;31.80;;;;;;5014612;28;20419;-56
2020/12/18 01:55:07;;;;;;;1.92;1.73;;;21.80;31.80;;;;;;5014531;28;20865;-56
2020/12/18 01:57:35;;;;;;;1.80;1.70;;;21.80;31.80;;;;;;5014540;28;20468;-56
2020/12/18 02:00:01;;;;;;;1.90;1.80;;;21.80;31.90;;;;;;5014240;28;20395;-56
2020/12/18 02:02:28;;;;;;;1.88;1.70;;;21.80;31.90;;;;;;5013992;28;20428;-56
2020/12/18 02:04:54;;;;;;;1.77;1.67;;;21.80;31.80;;;;;;5014373;28;20395;-56
2020/12/18 02:07:26;;;;;;;2.03;1.83;;;21.80;32.00;;;;;;5014414;28;20412;-56
2020/12/18 02:09:52;;;;;;;1.60;1.50;;;21.70;32.00;;;;;;5013727;28;20827;-56
2020/12/18 02:12:19;;;;;;;1.70;1.60;;;21.70;31.80;;;;;;5013749;28;20932;-56
2020/12/18 02:14:48;;;;;;;1.80;1.70;;;21.70;32.20;;;;;;5014201;28;20392;-56
2020/12/18 02:17:14;;;;;;;2.05;1.60;;;21.70;32.00;;;;;;5014104;28;20393;-56
2020/12/18 02:19:43;;;;;;;1.60;1.50;;;21.60;32.70;;;;;;5013876;28;20896;-56
2020/12/18 02:22:23;;;;;;;2.05;1.70;;;21.60;32.20;;;;;;5013819;28;20424;-56
2020/12/18 02:24:51;;;;;;;1.70;1.60;;;21.60;33.00;;;;;;5013942;28;20385;-56
2020/12/18 02:27:18;;;;;;;1.60;1.50;;;21.60;32.80;;;;;;5013850;28;20468;-56
2020/12/18 02:29:43;;;;;;;1.67;1.58;;;21.60;32.20;;;;;;4995959;28;20393;-56
2020/12/18 02:32:09;;;;;;;1.70;1.60;;;21.50;32.00;;;;;;5013696;28;20796;-56
2020/12/18 02:34:35;;;;;;;1.52;1.42;;;21.50;32.40;;;;;;5013633;28;20873;-56
2020/12/18 02:37:01;;;;;;;1.75;1.65;;;21.50;32.60;;;;;;5013447;28;20399;-56
2020/12/18 02:39:27;;;;;;;1.80;1.70;;;21.50;32.90;;;;;;5013343;28;20424;-56
2020/12/18 02:41:53;;;;;;;1.80;1.70;;;21.50;33.00;;;;;;5013293;28;20420;-56
2020/12/18 02:44:19;;;;;;;1.90;1.55;;;21.40;32.80;;;;;;5012703;28;20784;-56
2020/12/18 02:46:47;;;;;;;1.70;1.60;;;21.40;32.70;;;;;;5013586;28;20443;-56
2020/12/18 02:49:13;;;;;;;1.60;1.50;;;21.30;32.90;;;;;;5013464;28;20389;-57
2020/12/18 02:51:39;;;;;;;1.53;1.43;;;21.30;32.70;;;;;;5013599;28;20397;-56
2020/12/18 02:54:04;;;;;;;2.15;1.70;;;21.40;32.70;;;;;;5013217;28;20507;-56
2020/12/18 02:56:31;;;;;;;1.70;1.60;;;21.30;32.30;;;;;;5013192;28;20881;-56
2020/12/18 02:58:57;;;;;;;1.65;1.45;;;21.30;32.60;;;;;;5013223;28;20385;-57
2020/12/18 03:01:22;;;;;;;1.73;1.60;;;21.30;32.30;;;;;;5012854;28;20424;-56
2020/12/18 03:03:48;;;;;;;1.70;1.60;;;21.30;32.60;;;;;;5013108;28;20503;-56
2020/12/18 03:06:14;;;;;;;1.70;1.60;;;21.20;32.90;;;;;;5012776;28;20411;-56
2020/12/18 03:08:40;;;;;;;1.60;1.50;;;21.20;33.00;;;;;;5012537;28;20385;-56
2020/12/18 03:11:06;;;;;;;1.70;1.60;;;21.20;32.70;;;;;;5012927;28;20447;-56
2020/12/18 03:13:32;;;;;;;1.75;1.60;;;21.20;32.30;;;;;;5013135;28;20411;-56
2020/12/18 03:15:58;;;;;;;1.60;1.50;;;21.10;32.30;;;;;;5011625;28;20892;-56
2020/12/18 03:18:23;;;;;;;1.70;1.60;;;21.10;32.40;;;;;;5012553;28;20404;-56
2020/12/18 03:20:49;;;;;;;1.83;1.60;;;21.10;32.30;;;;;;5012798;28;20409;-56
2020/12/18 03:23:14;;;;;;;1.70;1.60;;;21.10;32.30;;;;;;5012966;28;20393;-56
2020/12/18 03:25:40;;;;;;;1.70;1.53;;;21.10;32.30;;;;;;5013045;28;20393;-56
2020/12/18 03:28:06;;;;;;;1.60;1.50;;;21.00;32.30;;;;;;5012504;28;20873;-56
2020/12/18 03:30:32;;;;;;;1.95;1.75;;;21.00;32.30;;;;;;5012446;28;20873;-56
2020/12/18 03:32:57;;;;;;;1.70;1.60;;;21.00;32.40;;;;;;5011272;28;20404;-56
2020/12/18 03:35:23;;;;;;;1.58;1.48;;;21.00;32.40;;;;;;5012715;28;20401;-56
2020/12/18 03:37:49;;;;;;;1.75;1.63;;;21.00;32.30;;;;;;5012230;28;20393;-56
2020/12/18 03:40:18;;;;;;;1.77;1.67;;;20.90;32.30;;;;;;4993738;28;20753;-56
2020/12/18 03:42:43;;;;;;;1.67;1.58;;;20.90;32.30;;;;;;5012415;28;20388;-56
2020/12/18 03:45:09;;;;;;;1.70;1.60;;;20.90;32.30;;;;;;5012322;28;20393;-56
2020/12/18 03:47:35;;;;;;;1.70;1.60;;;20.90;32.30;;;;;;5012554;28;20399;-56
2020/12/18 03:50:01;;;;;;;1.67;1.58;;;20.90;32.40;;;;;;5012425;28;20912;-56
2020/12/18 03:52:29;;;;;;;1.60;1.50;;;20.90;32.40;;;;;;5010740;28;20404;-56
2020/12/18 03:54:55;;;;;;;1.73;1.63;;;20.80;32.30;;;;;;5011638;28;20722;-56
2020/12/18 03:57:20;;;;;;;1.75;1.65;;;20.80;32.40;;;;;;5012258;28;20396;-56
2020/12/18 03:59:46;;;;;;;1.70;1.60;;;20.80;32.30;;;;;;5012261;28;20443;-56
2020/12/18 04:02:12;;;;;;;1.63;1.50;;;20.80;32.30;;;;;;5010701;28;20425;-56
2020/12/18 04:04:38;;;;;;;2.45;1.60;;;20.90;32.60;;;;;;4993677;28;20944;-56
2020/12/18 04:07:04;;;;;;;1.65;1.50;;;21.00;32.90;;;;;;5011621;28;20396;-56
2020/12/18 04:09:30;;;;;;;2.33;1.73;;;21.10;32.90;;;;;;5011170;28;20403;-56
2020/12/18 04:11:55;;;;;;;2.60;1.60;;;21.10;32.80;;;;;;5011700;28;20396;-56
2020/12/18 04:14:21;;;;;;;1.75;1.63;;;21.20;33.10;;;;;;5010720;28;20388;-56
2020/12/18 04:16:46;;;;;;;1.70;1.60;;;21.30;33.60;;;;;;5011798;28;20389;-56
2020/12/18 04:19:12;;;;;;;1.73;1.63;;;21.30;33.70;;;;;;5011975;28;20444;-56
2020/12/18 04:21:38;;;;;;;2.00;1.40;;;21.40;33.10;;;;;;5011811;28;20456;-56
2020/12/18 04:24:04;;;;;;;2.33;1.58;;;21.30;32.80;;;;;;5011600;28;20392;-56
2020/12/18 04:26:30;;;;;;;2.67;1.58;;;21.30;33.10;;;;;;5010462;28;20396;-56
2020/12/18 04:28:55;;;;;;;2.03;1.50;;;21.40;34.10;;;;;;5010997;28;20881;-56
2020/12/18 04:31:21;;;;;;;2.28;1.60;;;21.40;33.90;;;;;;5011748;28;20749;-57
2020/12/18 04:33:47;;;;;;;1.90;1.50;;;21.50;33.70;;;;;;5010559;28;20393;-56
2020/12/18 04:36:15;;;;;;;2.33;1.40;;;21.50;34.00;;;;;;5010742;28;20396;-56
2020/12/18 04:38:40;;;;;;;2.25;1.58;;;21.50;34.60;;;;;;4993151;28;20722;-57
2020/12/18 04:41:06;;;;;;;2.00;1.60;;;21.50;34.40;;;;;;5011296;28;20420;-56
2020/12/18 04:43:32;;;;;;;1.98;1.60;;;21.50;34.30;;;;;;5011129;28;20389;-56
2020/12/18 04:45:59;;;;;;;2.37;1.60;;;21.60;34.20;;;;;;5010897;28;20396;-56
2020/12/18 04:48:27;;;;;;;1.83;1.55;;;21.50;33.20;;;;;;5011044;28;20388;-57
2020/12/18 04:50:57;;;;;;;1.67;1.50;;;21.50;33.40;;;;;;5010853;28;20393;-57
2020/12/18 04:53:28;;;;;;;2.20;1.67;;;21.60;33.90;;;;;;5011289;28;20385;-56
2020/12/18 04:55:55;;;;;;;1.83;1.65;;;21.60;34.30;;;;;;5011529;28;20385;-57
2020/12/18 04:58:24;;;;;;;1.80;1.65;;;21.60;34.20;;;;;;5010800;28;20463;-56
2020/12/18 05:00:53;;;;;;;2.40;1.40;;;21.60;34.40;;;;;;5011285;28;20927;-56
2020/12/18 05:03:19;;;;;;;2.08;1.60;;;21.60;33.80;;;;;;5011368;28;20413;-57
2020/12/18 05:05:44;;;;;;;1.70;1.60;;;21.60;33.40;;;;;;5011275;28;20804;-57
2020/12/18 05:08:10;;;;;;;2.40;1.53;;;21.50;33.40;;;;;;5006561;28;20401;-57
2020/12/18 05:10:36;;;;;;;1.90;1.60;;;21.60;33.40;;;;;;5005830;28;20392;-57
2020/12/18 05:13:02;;;;;;;2.03;1.50;;;21.60;33.70;;;;;;5015259;28;20401;-56
2020/12/18 05:15:27;;;;;;;2.90;1.50;;;21.60;33.90;;;;;;4995872;28;20911;-56
2020/12/18 05:17:56;;;;;;;1.98;1.50;;;21.60;34.30;;;;;;4995709;28;20399;-57
2020/12/18 05:20:24;;;;;;;2.20;1.63;;;21.60;34.70;;;;;;4995018;28;20882;-57
2020/12/18 05:22:52;;;;;;;2.90;1.50;;;21.60;34.70;;;;;;4995459;28;20421;-57
2020/12/18 05:25:18;;;;;;;1.70;1.40;;;21.50;34.80;;;;;;4995467;28;20406;-57
2020/12/18 05:27:44;;;;;;;1.65;1.50;;;21.60;34.60;;;;;;4995436;28;20806;-57
2020/12/18 05:30:10;;;;;;;2.15;1.55;;;21.50;34.60;;;;;;4995373;28;20394;-56
2020/12/18 05:32:36;;;;;;;2.60;1.60;;;21.50;34.50;;;;;;4995274;28;20517;-57
2020/12/18 05:35:04;;;;;;;1.95;1.58;;;21.50;34.40;;;;;;4995348;28;20390;-56
2020/12/18 05:37:39;;;;;;;2.42;1.73;;;21.50;34.20;;;;;;4995313;28;20783;-57
2020/12/18 05:40:06;;;;;;;1.55;1.30;;;21.50;34.10;;;;;;4995268;28;20398;-57
2020/12/18 05:42:45;;;;;;;2.10;1.70;;;21.50;34.00;;;;;;4994776;28;20763;-57
2020/12/18 05:45:13;;;;;;;1.55;1.45;;;21.50;33.90;;;;;;4994999;28;20441;-57
2020/12/18 05:47:59;;;;;;;1.88;1.60;;;21.50;33.70;;;;;;4995117;28;20390;-57
2020/12/18 05:50:44;;;;;;;1.95;1.60;;;21.50;33.70;;;;;;4994543;28;20394;-56
2020/12/18 05:53:11;;;;;;;2.50;1.48;;;21.50;33.30;;;;;;4994652;28;20898;-57
2020/12/18 05:55:39;;;;;;;2.40;1.50;;;21.50;32.90;;;;;;4994486;28;20390;-69
2020/12/18 05:58:04;;;;;;;2.15;1.48;;;21.50;33.00;;;;;;4994953;28;20490;-57
2020/12/18 06:00:35;;;;;;;4.03;1.50;;;21.50;33.30;;;;;;4977962;28;20481;-57
2020/12/18 06:03:07;;;;;;;4.40;1.60;;;21.40;32.70;;;;;;5011531;28;20432;-56
2020/12/18 06:05:37;;;;;;;5.10;1.77;;;21.40;32.80;;;;;;5014747;28;20398;-57
2020/12/18 06:08:14;;;;;;;3.40;1.40;;;21.50;32.80;;;;;;4996831;28;20880;-56
2020/12/18 06:10:40;;;;;;;2.73;1.50;;;21.50;32.80;;;;;;4996683;28;20404;-56
2020/12/18 06:13:06;;;;;;;3.25;1.50;;;21.50;32.80;;;;;;5014352;28;20385;-58
2020/12/18 06:15:33;;;;;;;3.60;1.58;;;21.50;32.80;;;;;;5014235;28;20908;-57
2020/12/18 06:18:03;;;;;;;3.35;1.50;;;21.50;32.70;;;;;;5013174;28;20389;-57
2020/12/18 06:20:33;;;;;;;2.03;1.42;;;21.50;32.70;;;;;;5013381;28;20917;-57
2020/12/18 06:23:01;;;;;;;2.03;1.40;;;21.50;32.60;;;;;;5014191;28;20427;-56
2020/12/18 06:25:26;;;;;;;2.15;1.50;;;21.50;32.60;;;;;;5014086;28;20385;-56
2020/12/18 06:27:58;;;;;;;2.90;1.60;;;21.50;32.60;;;;;;5014012;28;20397;-56
2020/12/18 06:30:25;;;;;;;2.20;1.40;;;21.50;32.50;;;;;;4995944;28;20401;-57
2020/12/18 06:32:51;;;;;;;3.90;1.48;;;21.50;32.80;;;;;;5013926;28;20389;-57
2020/12/18 06:35:36;;;;;;;2.65;1.50;;;21.40;32.60;;;;;;5013885;28;20388;-56
2020/12/18 06:38:14;;;;;;;2.20;1.73;;;21.40;32.90;;;;;;5013707;28;20393;-57
2020/12/18 06:40:41;;;;;;;3.00;1.50;;;21.50;32.90;;;;;;5013298;28;20424;-56
2020/12/18 06:43:07;;;;;;;3.40;1.60;;;21.50;33.00;;;;;;4996206;28;20447;-57
2020/12/18 06:45:33;;;;;;;4.05;2.17;;;21.50;33.10;;;;;;4996042;28;20454;-57
2020/12/18 06:47:59;;;;;;;2.92;1.85;;;21.50;34.60;;;;;;5013361;28;20896;-57
2020/12/18 06:50:33;;;;;;;11.97;3.73;;;21.50;34.00;;;;;;5013222;28;20393;-57
2020/12/18 06:53:08;;;;;;;4.78;2.60;;;21.60;35.50;;;;;;5013426;28;20455;-56
2020/12/18 06:55:36;;;;;;;6.00;2.45;;;21.50;34.80;;;;;;5013619;28;20392;-57
2020/12/18 06:58:10;;;;;;;5.93;2.47;;;21.60;34.10;;;;;;5013339;28;20396;-56
2020/12/18 07:00:42;;;;;;;5.65;2.17;;;21.60;34.90;;;;;;4992159;28;20436;-61
2020/12/18 07:03:09;;;;;;;5.97;2.30;;;21.60;34.40;;;;;;5006537;28;20426;-60
2020/12/18 07:05:42;;;;;;;3.72;2.10;;;21.50;34.30;;;;;;5010130;28;20396;-57
2020/12/18 07:08:10;;;;;;;3.08;2.10;;;21.50;34.10;;;;;;4995378;28;20400;-56
2020/12/18 07:10:43;;;;;;;3.27;1.97;;;21.50;34.10;;;;;;5012702;28;21239;-57
2020/12/18 07:13:13;;;;;;;4.43;1.90;;;21.50;33.90;;;;;;5013040;28;20486;-57
2020/12/18 07:15:45;;;;;;;2.75;1.80;;;21.50;34.00;;;;;;4995576;28;20385;-57
2020/12/18 07:18:30;;;;;;;4.05;2.05;;;21.50;33.70;;;;;;5012731;28;20387;-57
2020/12/18 07:21:02;;;;;;;6.10;1.77;;;21.50;34.00;;;;;;5012794;28;20412;-57
2020/12/18 07:23:29;;;;;;;4.43;1.90;;;21.40;33.60;;;;;;5013088;28;20459;-57
2020/12/18 07:25:56;;;;;;;3.00;1.90;;;21.40;33.60;;;;;;5012924;28;20891;-57
2020/12/18 07:28:23;;;;;;;3.90;2.00;;;21.40;33.50;;;;;;5012699;28;20456;-57
2020/12/18 07:30:50;;;;;;;4.53;2.00;;;21.40;33.40;;;;;;5012529;28;20392;-57
2020/12/18 07:33:19;;;;;;;3.10;1.70;;;21.30;33.50;;;;;;5011871;28;20384;-57
2020/12/18 07:35:48;;;;;;;3.08;1.80;;;21.30;33.20;;;;;;5012469;28;20780;-57
2020/12/18 07:38:29;;;;;;;3.10;1.80;;;21.30;32.90;;;;;;5012599;28;20442;-68
2020/12/18 07:41:10;;;;;;;2.88;2.00;;;21.30;33.10;;;;;;5012360;28;20409;-57
2020/12/18 07:43:37;;;;;;;3.43;1.90;;;21.30;33.70;;;;;;5012731;28;20439;-57
2020/12/18 07:46:09;;;;;;;2.90;1.90;;;21.30;33.90;;;;;;5012542;28;20389;-57
2020/12/18 07:48:37;;;;;;;3.65;1.95;;;21.20;33.50;;;;;;5012054;28;20388;-56
2020/12/18 07:51:07;;;;;;;4.30;2.10;;;21.20;35.40;;;;;;5012293;28;20405;-57
2020/12/18 07:53:35;;;;;;;4.68;2.00;;;21.20;36.00;;;;;;5012484;28;20420;-56
2020/12/18 07:56:07;;;;;;;5.00;2.05;;;21.20;35.90;;;;;;5012260;28;20393;-57
2020/12/18 07:58:42;;;;;;;3.70;1.95;;;21.20;37.20;;;;;;5011755;28;20397;-57
2020/12/18 08:01:23;;;;;;;3.30;1.90;;;21.20;37.50;;;;;;5012116;28;20467;-57
2020/12/18 08:03:59;;;;;;;4.27;2.10;;;21.20;37.30;;;;;;5012185;28;20459;-62
2020/12/18 08:06:30;;;;;;;3.75;1.88;;;21.20;36.40;;;;;;5011835;28;20447;-57
2020/12/18 08:08:56;;;;;;;2.63;1.75;;;21.20;36.60;;;;;;5011914;28;20385;-57
2020/12/18 08:11:23;;;;;;;3.50;1.73;;;21.20;35.50;;;;;;5012337;28;20797;-57
2020/12/18 08:13:49;;;;;;;4.25;2.13;;;21.20;36.10;;;;;;5012058;28;20401;-61
2020/12/18 08:16:20;;;;;;;6.30;2.25;;;21.20;38.00;;;;;;5012302;28;20761;-66
2020/12/18 08:18:52;;;;;;;4.30;2.00;;;21.30;38.20;;;;;;5011844;28;20389;-57
2020/12/18 08:21:23;;;;;;;3.83;2.00;;;21.30;39.90;;;;;;4994163;28;20451;-58
2020/12/18 08:23:55;;;;;;;5.32;1.98;;;21.30;40.60;;;;;;4994289;28;20431;-57
2020/12/18 08:26:23;;;;;;;4.40;1.90;;;21.30;39.50;;;;;;5011837;28;20486;-57
2020/12/18 08:28:50;;;;;;;4.15;1.90;;;21.30;40.60;;;;;;5011522;28;20419;-57
2020/12/18 08:31:17;;;;;;;3.78;2.05;;;21.30;40.30;;;;;;5011768;28;20389;-57
2020/12/18 08:33:52;;;;;;;4.28;1.80;;;21.40;40.80;;;;;;5011719;28;20781;-64
2020/12/18 08:36:18;;;;;;;3.83;1.90;;;21.40;40.70;;;;;;5011441;28;20393;-63
2020/12/18 08:39:02;;;;;;;5.68;2.60;;;21.40;39.70;;;;;;5011151;28;20861;-62
2020/12/18 08:41:38;;;;;;;3.50;1.90;;;21.40;38.20;;;;;;4993626;28;20967;-64
2020/12/18 08:44:05;;;;;;;3.53;1.85;;;21.40;37.40;;;;;;5011378;28;20401;-58
2020/12/18 08:46:33;;;;;;;2.40;1.83;;;21.30;37.50;;;;;;4993591;28;20393;-57
2020/12/18 08:48:59;;;;;;;2.28;1.80;;;21.30;38.40;;;;;;5011493;28;20426;-57
2020/12/18 08:51:27;;;;;;;2.67;1.77;;;21.30;37.40;;;;;;5011612;28;20381;-57
2020/12/18 08:53:52;;;;;;;3.00;1.90;;;21.30;37.70;;;;;;5011476;28;20400;-61
2020/12/18 08:56:19;;;;;;;2.85;1.80;;;21.30;37.20;;;;;;5011531;28;20750;-58
2020/12/18 08:58:45;;;;;;;2.72;1.80;;;21.30;37.20;;;;;;5010873;28;20404;-57
2020/12/18 09:01:23;;;;;;;2.60;1.73;;;21.30;37.40;;;;;;5011209;28;20421;-61
2020/12/18 09:03:49;;;;;;;3.17;1.88;;;21.30;36.80;;;;;;5004397;28;20424;-57
2020/12/18 09:06:15;;;;;;;3.03;1.90;;;21.20;36.80;;;;;;4989411;28;20398;-57
2020/12/18 09:08:41;;;;;;;2.40;1.80;;;21.20;36.50;;;;;;4990856;28;20871;-59
2020/12/18 09:11:07;;;;;;;3.83;1.90;;;21.20;35.90;;;;;;4996305;28;20405;-57
2020/12/18 09:13:37;;;;;;;1.93;1.60;;;21.20;36.80;;;;;;4991445;28;20481;-57
2020/12/18 09:16:04;;;;;;;2.60;1.75;;;21.20;35.10;;;;;;4992033;28;20398;-56
2020/12/18 09:18:38;;;;;;;4.80;1.80;;;21.10;35.30;;;;;;4991516;28;20814;-57
2020/12/18 09:21:17;;;;;;;4.85;1.80;;;21.10;35.10;;;;;;4958371;28;20438;-57
2020/12/18 09:23:46;;;;;;;2.70;1.90;;;21.10;34.90;;;;;;4991572;28;20985;-64
2020/12/18 09:26:21;;;;;;;2.42;1.80;;;21.10;34.20;;;;;;4991676;28;20473;-59
2020/12/18 09:28:47;;;;;;;2.72;1.85;;;21.10;34.90;;;;;;4990276;28;20402;-57
2020/12/18 09:31:13;;;;;;;3.65;1.80;;;21.10;34.10;;;;;;4990741;28;20392;-57
2020/12/18 09:33:39;;;;;;;3.13;1.90;;;21.10;34.20;;;;;;4991236;28;20814;-57
2020/12/18 09:36:09;;;;;;;3.50;1.80;;;21.00;34.10;;;;;;4991359;28;20386;-57
2020/12/18 09:38:46;;;;;;;3.00;1.85;;;21.00;34.60;;;;;;4991066;28;20399;-70
2020/12/18 09:41:15;;;;;;;3.05;1.98;;;21.00;33.80;;;;;;4991424;28;20414;-64
2020/12/18 09:43:41;;;;;;;2.95;1.92;;;21.00;33.60;;;;;;4991073;28;20407;-57
2020/12/18 09:46:11;;;;;;;2.80;2.00;;;21.00;33.50;;;;;;4991379;28;20875;-57
2020/12/18 09:48:39;;;;;;;2.75;2.22;;;21.00;33.60;;;;;;4991092;28;20391;-57
2020/12/18 09:51:05;;;;;;;3.00;1.90;;;21.00;33.50;;;;;;4991313;28;20390;-57
2020/12/18 09:53:30;;;;;;;2.60;1.90;;;20.90;33.50;;;;;;4993384;28;20393;-56
2020/12/18 09:55:56;;;;;;;2.45;1.90;;;20.90;33.50;;;;;;4994688;28;20402;-57
2020/12/18 09:58:21;;;;;;;2.07;1.83;;;20.90;33.50;;;;;;4999469;28;20381;-57
2020/12/18 10:00:48;;;;;;;2.17;1.98;;;20.90;33.40;;;;;;5013604;28;20401;-57
2020/12/18 10:03:14;;;;;;;2.05;1.83;;;20.90;33.40;;;;;;5014030;28;20413;-56
2020/12/18 10:05:39;;;;;;;3.03;2.03;;;20.90;33.40;;;;;;5004004;28;20422;-62
2020/12/18 10:08:05;;;;;;;2.20;1.80;;;20.90;33.30;;;;;;4994507;28;20402;-64
2020/12/18 10:10:31;;;;;;;2.72;2.03;;;20.90;33.30;;;;;;4994445;28;20888;-57
2020/12/18 10:12:59;;;;;;;2.33;2.05;;;20.90;33.20;;;;;;4994600;28;20401;-56
2020/12/18 10:15:25;;;;;;;2.43;2.00;;;20.90;33.20;;;;;;4993788;28;20743;-56
2020/12/18 10:17:51;;;;;;;2.70;2.00;;;20.90;33.20;;;;;;4994153;28;20398;-57
2020/12/18 10:20:17;;;;;;;2.23;1.90;;;20.90;33.20;;;;;;4994480;28;20387;-56
2020/12/18 10:22:42;;;;;;;3.10;2.20;;;20.90;33.30;;;;;;4993895;28;20433;-57
2020/12/18 10:25:08;;;;;;;3.55;2.10;;;20.90;33.20;;;;;;4994222;28;20720;-57
2020/12/18 10:27:37;;;;;;;3.80;2.10;;;20.90;33.30;;;;;;4994356;28;20418;-58
2020/12/18 10:30:07;;;;;;;2.78;2.10;;;20.80;33.40;;;;;;4976914;28;20422;-57
2020/12/18 10:32:33;;;;;;;3.35;1.90;;;20.80;33.50;;;;;;4995634;28;20443;-57
2020/12/18 10:34:59;;;;;;;2.63;2.25;;;20.80;33.60;;;;;;4995267;28;20402;-57
2020/12/18 10:37:26;;;;;;;3.10;2.30;;;20.80;33.60;;;;;;5010907;28;20458;-56
2020/12/18 10:39:52;;;;;;;3.40;2.28;;;20.80;33.60;;;;;;5006723;28;20509;-57
2020/12/18 10:42:18;;;;;;;3.10;2.30;;;20.80;33.70;;;;;;4999768;28;20855;-57
2020/12/18 10:44:44;;;;;;;3.05;2.25;;;20.80;33.70;;;;;;5010190;28;20472;-56
2020/12/18 10:47:09;;;;;;;2.55;2.35;;;20.80;33.70;;;;;;5012696;28;20543;-57
2020/12/18 10:49:35;;;;;;;2.88;2.30;;;20.80;33.70;;;;;;5013507;28;20402;-57
2020/12/18 10:52:01;;;;;;;3.77;2.43;;;20.80;33.70;;;;;;5011822;28;20809;-57
2020/12/18 10:54:30;;;;;;;3.38;2.50;;;20.70;33.70;;;;;;5011204;28;20431;-56
2020/12/18 10:56:56;;;;;;;3.10;2.17;;;20.70;33.70;;;;;;5013077;28;20511;-70
2020/12/18 10:59:31;;;;;;;6.00;2.80;;;20.70;33.60;;;;;;5000190;28;20391;-59
2020/12/18 11:01:58;;;;;;;11.10;2.53;;;20.60;34.00;;;;;;4972513;28;20442;-57
2020/12/18 11:04:24;;;;;;;7.27;2.47;;;20.70;34.60;;;;;;4992706;28;20491;-57
2020/12/18 11:06:50;;;;;;;7.10;2.42;;;20.80;35.10;;;;;;4982945;28;20762;-57
2020/12/18 11:09:16;;;;;;;3.88;2.45;;;20.80;36.30;;;;;;4993621;28;20390;-57
2020/12/18 11:11:43;;;;;;;5.72;2.40;;;20.90;35.90;;;;;;4993634;28;20758;-57
2020/12/18 11:14:08;;;;;;;8.35;2.70;;;21.00;36.30;;;;;;4993514;28;20782;-57
2020/12/18 11:16:37;;;;;;;5.47;2.72;;;21.10;36.60;;;;;;4993225;28;20889;-57
2020/12/18 11:19:04;;;;;;;5.35;3.17;;;21.20;36.90;;;;;;4993111;28;20886;-57
2020/12/18 11:21:30;;;;;;;7.65;4.40;;;21.30;35.80;;;;;;4993372;28;20421;-57
2020/12/18 11:23:57;;;;;;;15.38;6.10;;;21.30;36.30;;;;;;4993204;28;20386;-57
2020/12/18 11:26:23;;;;;;;10.18;5.65;;;21.40;37.00;;;;;;4993297;28;20422;-57
2020/12/18 11:28:49;;;;;;;10.00;6.50;;;21.50;35.80;;;;;;5004723;28;20385;-57
2020/12/18 11:31:15;;;;;;;12.63;6.22;;;21.50;36.80;;;;;;5011468;28;20396;-57
2020/12/18 11:33:41;;;;;;;11.05;6.00;;;21.60;36.20;;;;;;5012601;28;20407;-57
2020/12/18 11:36:07;;;;;;;11.60;5.87;;;21.70;36.60;;;;;;5012717;28;20444;-57
2020/12/18 11:38:33;;;;;;;11.20;5.90;;;21.80;36.40;;;;;;5012089;28;20483;-57
2020/12/18 11:40:59;;;;;;;13.68;6.88;;;21.80;37.10;;;;;;5003757;28;20993;-57
2020/12/18 11:43:24;;;;;;;10.05;6.13;;;21.80;37.70;;;;;;4992842;28;20430;-57
2020/12/18 11:45:50;;;;;;;12.63;7.13;;;22.00;37.10;;;;;;4992715;28;20387;-57
2020/12/18 11:48:16;;;;;;;15.55;8.65;;;22.00;38.10;;;;;;4992456;28;20390;-57
2020/12/18 11:50:41;;;;;;;17.67;8.80;;;22.00;37.90;;;;;;4990267;28;20387;-58
2020/12/18 11:53:09;;;;;;;15.38;8.77;;;22.10;37.80;;;;;;5001396;28;20401;-57
2020/12/18 11:55:35;;;;;;;17.45;9.90;;;22.10;38.30;;;;;;5012201;28;20384;-57
2020/12/18 11:58:00;;;;;;;15.40;8.85;;;22.10;38.80;;;;;;5010193;28;20408;-57
2020/12/18 12:00:26;;;;;;;26.08;10.40;;;22.20;38.20;;;;;;4991921;28;20383;-57
2020/12/18 12:02:53;;;;;;;16.95;10.02;;;22.20;39.00;;;;;;4991663;28;20441;-57
2020/12/18 12:05:20;;;;;;;19.27;9.52;;;22.20;39.20;;;;;;4992740;28;20426;-57
2020/12/18 12:07:46;;;;;;;18.45;9.55;;;22.20;39.20;;;;;;4991822;28;20406;-57
2020/12/18 12:10:13;;;;;;;19.25;10.88;;;22.30;38.00;;;;;;4992489;28;20933;-57
2020/12/18 12:12:39;;;;;;;16.90;12.17;;;22.30;38.90;;;;;;4992070;28;20894;-57
2020/12/18 12:15:06;;;;;;;17.13;12.13;;;22.30;38.70;;;;;;4991539;28;20390;-57
2020/12/18 12:17:32;;;;;;;20.60;13.10;;;22.30;38.20;;;;;;4991601;28;20762;-58
2020/12/18 12:19:58;;;;;;;17.90;12.05;;;22.20;38.40;;;;;;4992054;28;20456;-58
2020/12/18 12:22:24;;;;;;;16.75;14.38;;;22.20;37.50;;;;;;4992419;28;20418;-69
2020/12/18 12:24:55;;;;;;;16.75;12.70;;;22.20;37.80;;;;;;4991385;28;20451;-63
2020/12/18 12:27:23;;;;;;;18.52;11.95;;;22.30;37.30;;;;;;4992153;28;20953;-57
2020/12/18 12:29:49;;;;;;;19.17;11.93;;;22.30;36.90;;;;;;4973965;28;20399;-58
2020/12/18 12:32:15;;;;;;;18.50;12.30;;;22.40;37.10;;;;;;5006343;28;20911;-57
2020/12/18 12:34:41;;;;;;;18.23;11.95;;;22.50;37.90;;;;;;5011262;28;20427;-57
2020/12/18 12:37:07;;;;;;;16.63;10.98;;;22.50;38.50;;;;;;5010534;28;20423;-57
2020/12/18 12:39:33;;;;;;;18.23;11.27;;;22.60;38.50;;;;;;5002286;28;20403;-58
2020/12/18 12:42:01;;;;;;;17.33;10.68;;;22.60;38.50;;;;;;4993796;28;20429;-58
2020/12/18 12:44:28;;;;;;;19.75;10.32;;;22.60;38.40;;;;;;5000046;28;20381;-57
2020/12/18 12:46:54;;;;;;;15.07;9.85;;;22.60;38.50;;;;;;4998314;28;20414;-57